Home > Products > Valid Products > TAF

000
FTUS43 KDDC 221100
TAFHYS
TAF
KHYS 221120Z 2212/2312 VRB06KT P6SM SKC
     FM221900 19013G20KT P6SM SKC
     FM230000 09010KT P6SM SKC=



000
FTUS43 KDDC 221100
TAFGCK
TAF
KGCK 221120Z 2212/2312 18007KT P6SM SKC
     FM221500 20015G23KT P6SM SKC
     FM230100 18007KT P6SM SKC=



000
FTUS43 KDDC 221100
TAFDDC
TAF
KDDC 221120Z 2212/2312 18007KT P6SM SKC
     FM221500 20015G23KT P6SM SKC
     FM230100 18007KT P6SM SKC=



000
FTUS43 KDDC 221100
TAFDDC
TAF
KDDC 221120Z 2212/2312 18007KT P6SM SKC
     FM221500 20015G23KT P6SM SKC
     FM230100 18007KT P6SM SKC=



000
FTUS43 KDDC 221100
TAFHYS
TAF
KHYS 221120Z 2212/2312 VRB06KT P6SM SKC
     FM221900 19013G20KT P6SM SKC
     FM230000 09010KT P6SM SKC=



000
FTUS43 KDDC 221100
TAFGCK
TAF
KGCK 221120Z 2212/2312 18007KT P6SM SKC
     FM221500 20015G23KT P6SM SKC
     FM230100 18007KT P6SM SKC=



000
FTUS43 KDDC 220500
TAFHYS
TAF
KHYS 220525Z 2206/2306 22010KT P6SM SCT250
     FM221900 19013G20KT P6SM SCT080
     FM230000 09012KT P6SM BKN080=



000
FTUS43 KDDC 220500
TAFDDC
TAF
KDDC 220525Z 2206/2306 24012KT P6SM FEW100 BKN250
     FM220800 22010KT P6SM BKN250
     FM221500 19015G23KT P6SM SCT090
     FM230100 17007KT P6SM SCT250=



000
FTUS43 KDDC 220500
TAFGCK
TAF
KGCK 220525Z 2206/2306 20013KT P6SM FEW100 BKN250
     FM220800 22010KT P6SM BKN250
     FM221500 19015G23KT P6SM SCT090
     FM230100 17007KT P6SM SCT250=



000
FTUS43 KDDC 220500
TAFHYS
TAF
KHYS 220525Z 2206/2306 22010KT P6SM SCT250
     FM221900 19013G20KT P6SM SCT080
     FM230000 09012KT P6SM BKN080=



000
FTUS43 KDDC 220500
TAFGCK
TAF
KGCK 220525Z 2206/2306 20013KT P6SM FEW100 BKN250
     FM220800 22010KT P6SM BKN250
     FM221500 19015G23KT P6SM SCT090
     FM230100 17007KT P6SM SCT250=



000
FTUS43 KDDC 220500
TAFDDC
TAF
KDDC 220525Z 2206/2306 24012KT P6SM FEW100 BKN250
     FM220800 22010KT P6SM BKN250
     FM221500 19015G23KT P6SM SCT090
     FM230100 17007KT P6SM SCT250=



000
FTUS43 KDDC 220100 AAA
TAFDDC
TAF AMD
KDDC 220134Z 2202/2224 15011KT P6SM OVC200
     FM220230 30024G38KT P6SM OVC150
     FM220300 VRB20G30KT P6SM VCTS OVC060CB
     FM220400 14012KT P6SM OVC200
     FM220600 18015KT P6SM SCT200
     FM221100 22012KT P6SM SKC
     FM221900 19015G23KT P6SM SKC=



000
FTUS43 KDDC 220100 AAA
TAFDDC
TAF AMD
KDDC 220134Z 2202/2224 15011KT P6SM OVC200
     FM220230 30024G38KT P6SM OVC150
     FM220300 VRB20G30KT P6SM VCTS OVC060CB
     FM220400 14012KT P6SM OVC200
     FM220600 18015KT P6SM SCT200
     FM221100 22012KT P6SM SKC
     FM221900 19015G23KT P6SM SKC=



000
FTUS43 KDDC 220000 AAA
TAFGCK
TAF AMD
KGCK 220006Z 2200/2224 18015KT P6SM BKN200
     FM220030 29025G35KT P6SM BKN100
     FM220100 VRB25G35KT P6SM VCTS BKN060CB
     FM220230 16015KT P6SM BKN200
     FM221100 22012KT P6SM SKC
     FM221900 19015G23KT P6SM SKC=



000
FTUS43 KDDC 220000 AAA
TAFGCK
TAF AMD
KGCK 220006Z 2200/2224 18015KT P6SM BKN200
     FM220030 29025G35KT P6SM BKN100
     FM220100 VRB25G35KT P6SM VCTS BKN060CB
     FM220230 16015KT P6SM BKN200
     FM221100 22012KT P6SM SKC
     FM221900 19015G23KT P6SM SKC=



000
FTUS43 KDDC 212300
TAFHYS
TAF
KHYS 212337Z 2200/2224 18015KT P6SM BKN200
     FM221100 22012KT P6SM SKC
     FM221900 19015G23KT P6SM SKC=



000
FTUS43 KDDC 212300
TAFDDC
TAF
KDDC 212337Z 2200/2224 18015KT P6SM BKN200
     FM221100 22012KT P6SM SKC
     FM221900 19015G23KT P6SM SKC=



000
FTUS43 KDDC 212300
TAFGCK
TAF
KGCK 212337Z 2200/2224 18015KT P6SM BKN200
     FM220100 VRB25KT P6SM VCTS BKN050CB
     FM220230 16015KT P6SM BKN200
     FM221100 22012KT P6SM SKC
     FM221900 19015G23KT P6SM SKC=



000
FTUS43 KDDC 212300
TAFHYS
TAF
KHYS 212337Z 2200/2224 18015KT P6SM BKN200
     FM221100 22012KT P6SM SKC
     FM221900 19015G23KT P6SM SKC=



000
FTUS43 KDDC 212300
TAFDDC
TAF
KDDC 212337Z 2200/2224 18015KT P6SM BKN200
     FM221100 22012KT P6SM SKC
     FM221900 19015G23KT P6SM SKC=



000
FTUS43 KDDC 212300
TAFGCK
TAF
KGCK 212337Z 2200/2224 18015KT P6SM BKN200
     FM220100 VRB25KT P6SM VCTS BKN050CB
     FM220230 16015KT P6SM BKN200
     FM221100 22012KT P6SM SKC
     FM221900 19015G23KT P6SM SKC=



000
FTUS43 KDDC 211900 AAA
TAFHYS
TAF AMD
KHYS 211950Z 2120/2218 18017KT P6SM FEW200
     FM220200 18011KT P6SM SCT090 BKN200
     FM221400 20012KT P6SM SKC=



000
FTUS43 KDDC 211800 AAA
TAFDDC
TAF AMD
KDDC 211834Z 2119/2218 19016KT P6SM FEW200
     FM220200 18011KT P6SM SCT090 BKN200
     FM221300 21013KT P6SM SKC=



000
FTUS43 KDDC 211800 AAA
TAFDDC
TAF AMD
KDDC 211834Z 2119/2218 19016KT P6SM FEW200
     FM220200 18011KT P6SM SCT090 BKN200
     FM221300 21013KT P6SM SKC=



000
FTUS43 KDDC 211700
TAFGCK
TAF
KGCK 211720Z 2118/2218 21012G17KT P6SM FEW200
     FM220200 18011KT P6SM FEW090 BKN250
     FM221400 20013KT P6SM SKC=



000
FTUS43 KDDC 211700
TAFDDC
TAF
KDDC 211720Z 2118/2218 23013G20KT P6SM FEW200
     FM220200 18011KT P6SM SCT090 BKN200
     FM221300 21013KT P6SM SKC=



000
FTUS43 KDDC 211700
TAFHYS
TAF
KHYS 211720Z 2118/2218 21014G18KT P6SM FEW200
     FM220200 18011KT P6SM SCT090 BKN200
     FM221400 20012KT P6SM SKC=



000
FTUS43 KDDC 211700
TAFHYS
TAF
KHYS 211720Z 2118/2218 21014G18KT P6SM FEW200
     FM220200 18011KT P6SM SCT090 BKN200
     FM221400 20012KT P6SM SKC=



000
FTUS43 KDDC 211700
TAFGCK
TAF
KGCK 211720Z 2118/2218 21012G17KT P6SM FEW200
     FM220200 18011KT P6SM FEW090 BKN250
     FM221400 20013KT P6SM SKC=



000
FTUS43 KDDC 211700
TAFDDC
TAF
KDDC 211720Z 2118/2218 23013G20KT P6SM FEW200
     FM220200 18011KT P6SM SCT090 BKN200
     FM221300 21013KT P6SM SKC=



000
FTUS43 KDDC 211600 AAA
TAFGCK
TAF AMD
KGCK 211625Z 2116/2212 21012KT P6SM SKC
     FM220200 18011KT P6SM BKN090=



000
FTUS43 KDDC 211600 AAA
TAFGCK
TAF AMD
KGCK 211625Z 2116/2212 21012KT P6SM SKC
     FM220200 18011KT P6SM BKN090=



000
FTUS43 KDDC 211400 AAA
TAFDDC
TAF AMD
KDDC 211407Z 2114/2212 21016G22KT P6SM FEW090
     FM220200 18011KT P6SM BKN090=



000
FTUS43 KDDC 211400 AAA
TAFDDC
TAF AMD
KDDC 211407Z 2114/2212 21016G22KT P6SM FEW090
     FM220200 18011KT P6SM BKN090=



000
FTUS43 KDDC 211100
TAFDDC
TAF
KDDC 211120Z 2112/2212 20010KT P6SM SKC
     FM211600 21016G24KT P6SM SCT090
     FM220200 18011KT P6SM BKN090=



000
FTUS43 KDDC 211100
TAFHYS
TAF
KHYS 211120Z 2112/2212 20011KT P6SM SCT250
     FM211600 21016G24KT P6SM SCT090
     FM220200 18011KT P6SM BKN090=



000
FTUS43 KDDC 211100
TAFGCK
TAF
KGCK 211120Z 2112/2212 20010KT P6SM SCT250
     FM211600 21016G24KT P6SM SCT090
     FM220200 18011KT P6SM BKN090=



000
FTUS43 KDDC 211100
TAFDDC
TAF
KDDC 211120Z 2112/2212 20010KT P6SM SKC
     FM211600 21016G24KT P6SM SCT090
     FM220200 18011KT P6SM BKN090=



000
FTUS43 KDDC 211100
TAFGCK
TAF
KGCK 211120Z 2112/2212 20010KT P6SM SCT250
     FM211600 21016G24KT P6SM SCT090
     FM220200 18011KT P6SM BKN090=



000
FTUS43 KDDC 211100
TAFHYS
TAF
KHYS 211120Z 2112/2212 20011KT P6SM SCT250
     FM211600 21016G24KT P6SM SCT090
     FM220200 18011KT P6SM BKN090=



000
FTUS43 KDDC 210500
TAFDDC
TAF
KDDC 210521Z 2106/2206 20010KT P6SM SKC
     FM211600 21016G24KT P6SM SKC=



000
FTUS43 KDDC 210500
TAFGCK
TAF
KGCK 210521Z 2106/2206 20010KT P6SM SKC
     FM211600 21014G20KT P6SM SKC=



000
FTUS43 KDDC 210500
TAFHYS
TAF
KHYS 210521Z 2106/2206 20009KT P6SM SKC
     FM211600 21019G26KT P6SM SKC=



000
FTUS43 KDDC 210500
TAFGCK
TAF
KGCK 210521Z 2106/2206 20010KT P6SM SKC
     FM211600 21014G20KT P6SM SKC=



000
FTUS43 KDDC 210500
TAFHYS
TAF
KHYS 210521Z 2106/2206 20009KT P6SM SKC
     FM211600 21019G26KT P6SM SKC=



000
FTUS43 KDDC 210500
TAFDDC
TAF
KDDC 210521Z 2106/2206 20010KT P6SM SKC
     FM211600 21016G24KT P6SM SKC=



000
FTUS43 KDDC 210500
TAFDDC
TAF
KDDC 210520Z 2106/2206 20010KT P6SM SKC
     FM211600 28016G24KT P6SM SKC=



000
FTUS43 KDDC 210500
TAFDDC
TAF
KDDC 210520Z 2106/2206 20010KT P6SM SKC
     FM211600 28016G24KT P6SM SKC=



000
FTUS43 KDDC 210500
TAFGCK
TAF
KGCK 210520Z 2106/2206 20010KT P6SM SKC
     FM211600 28014G20KT P6SM SKC=



000
FTUS43 KDDC 210500
TAFHYS
TAF
KHYS 210520Z 2106/2206 20009KT P6SM SKC
     FM211600 28019G26KT P6SM SKC=



000
FTUS43 KDDC 210500
TAFHYS
TAF
KHYS 210520Z 2106/2206 20009KT P6SM SKC
     FM211600 28019G26KT P6SM SKC=



000
FTUS43 KDDC 210500
TAFGCK
TAF
KGCK 210520Z 2106/2206 20010KT P6SM SKC
     FM211600 28014G20KT P6SM SKC=



000
FTUS43 KDDC 202300
TAFHYS
TAF
KHYS 202320Z 2100/2124 18013G20KT P6SM SKC
     FM210600 19010KT P6SM SKC
     FM211600 28019G27KT P6SM SKC=



000
FTUS43 KDDC 202300
TAFDDC
TAF
KDDC 202320Z 2100/2124 18013G20KT P6SM SKC
     FM210600 19010KT P6SM SKC
     FM211600 28016G24KT P6SM SKC=



000
FTUS43 KDDC 202300
TAFGCK
TAF
KGCK 202320Z 2100/2124 18013G20KT P6SM SKC
     FM210600 19010KT P6SM SKC
     FM211600 28014G20KT P6SM SKC=



000
FTUS43 KDDC 202300
TAFHYS
TAF
KHYS 202320Z 2100/2124 18013G20KT P6SM SKC
     FM210600 19010KT P6SM SKC
     FM211600 28019G27KT P6SM SKC=



000
FTUS43 KDDC 201700
TAFHYS
TAF
KHYS 201729Z 2018/2118 18013G20KT P6SM SKC=



000
FTUS43 KDDC 201700
TAFHYS
TAF
KHYS 201729Z 2018/2118 18013G20KT P6SM SKC=



000
FTUS43 KDDC 201700
TAFGCK
TAF
KGCK 201729Z 2018/2118 18013G20KT P6SM SKC=



000
FTUS43 KDDC 201700
TAFDDC
TAF
KDDC 201729Z 2018/2118 18013G20KT P6SM SKC=



000
FTUS43 KDDC 201700
TAFDDC
TAF
KDDC 201729Z 2018/2118 18013G20KT P6SM SKC=



000
FTUS43 KDDC 201700
TAFGCK
TAF
KGCK 201729Z 2018/2118 18013G20KT P6SM SKC=



000
FTUS43 KDDC 201100
TAFHYS
TAF
KHYS 201120Z 2012/2112 18012KT P6SM SCT007
     FM201600 19017G25KT P6SM SKC
     FM210200 17012KT P6SM SKC=



000
FTUS43 KDDC 201100
TAFGCK
TAF
KGCK 201120Z 2012/2112 19008KT P6SM SKC
     FM201600 19017G25KT P6SM SKC
     FM210200 17012KT P6SM SKC=



000
FTUS43 KDDC 201100
TAFDDC
TAF
KDDC 201120Z 2012/2112 19012KT P6SM SKC
     FM201600 19017G25KT P6SM SKC
     FM210200 17012KT P6SM SKC=



000
FTUS43 KDDC 201100
TAFGCK
TAF
KGCK 201120Z 2012/2112 19008KT P6SM SKC
     FM201600 19017G25KT P6SM SKC
     FM210200 17012KT P6SM SKC=



000
FTUS43 KDDC 201100
TAFHYS
TAF
KHYS 201120Z 2012/2112 18012KT P6SM SCT007
     FM201600 19017G25KT P6SM SKC
     FM210200 17012KT P6SM SKC=



000
FTUS43 KDDC 201100
TAFDDC
TAF
KDDC 201120Z 2012/2112 19012KT P6SM SKC
     FM201600 19017G25KT P6SM SKC
     FM210200 17012KT P6SM SKC=



000
FTUS43 KDDC 200500
TAFDDC
TAF
KDDC 200520Z 2006/2106 17011KT P6SM SKC
     FM201200 19013KT P6SM SKC
     FM201600 19017G25KT P6SM SKC=



000
FTUS43 KDDC 200500
TAFGCK
TAF
KGCK 200520Z 2006/2106 16011KT P6SM SKC
     FM201200 19013KT P6SM SKC
     FM201600 19017G25KT P6SM SKC=



000
FTUS43 KDDC 200500
TAFDDC
TAF
KDDC 200520Z 2006/2106 17011KT P6SM SKC
     FM201200 19013KT P6SM SKC
     FM201600 19017G25KT P6SM SKC=



000
FTUS43 KDDC 200500
TAFHYS
TAF
KHYS 200520Z 2006/2106 17011KT P6SM SKC
     FM201200 19013KT P6SM SKC
     FM201600 19017G25KT P6SM SKC=



000
FTUS43 KDDC 200500
TAFGCK
TAF
KGCK 200520Z 2006/2106 16011KT P6SM SKC
     FM201200 19013KT P6SM SKC
     FM201600 19017G25KT P6SM SKC=



000
FTUS43 KDDC 200500
TAFHYS
TAF
KHYS 200520Z 2006/2106 17011KT P6SM SKC
     FM201200 19013KT P6SM SKC
     FM201600 19017G25KT P6SM SKC=



000
FTUS43 KDDC 192300
TAFDDC
TAF
KDDC 192320Z 2000/2024 17017G25KT P6SM SKC
     FM200200 16016KT P6SM SKC
     FM201200 19013KT P6SM SKC
     FM201600 19017G25KT P6SM SKC=



000
FTUS43 KDDC 192300
TAFHYS
TAF
KHYS 192320Z 2000/2024 16013KT P6SM SKC
     FM201200 19013KT P6SM SKC
     FM201600 19017G25KT P6SM SKC=



000
FTUS43 KDDC 192300
TAFHYS
TAF
KHYS 192320Z 2000/2024 16013KT P6SM SKC
     FM201200 19013KT P6SM SKC
     FM201600 19017G25KT P6SM SKC=



000
FTUS43 KDDC 192300
TAFDDC
TAF
KDDC 192320Z 2000/2024 17017G25KT P6SM SKC
     FM200200 16016KT P6SM SKC
     FM201200 19013KT P6SM SKC
     FM201600 19017G25KT P6SM SKC=



000
FTUS43 KDDC 192300
TAFGCK
TAF
KGCK 192320Z 2000/2024 16012KT P6SM SKC
     FM201200 19013KT P6SM SKC
     FM201600 19017G25KT P6SM SKC=



000
FTUS43 KDDC 192300
TAFGCK
TAF
KGCK 192320Z 2000/2024 16012KT P6SM SKC
     FM201200 19013KT P6SM SKC
     FM201600 19017G25KT P6SM SKC=



000
FTUS43 KDDC 191900 AAA
TAFHYS
TAF AMD
KHYS 191956Z 1920/2018 17012G18KT P6SM OVC018
     FM192200 17012G18KT P6SM SCT030=



000
FTUS43 KDDC 191900 AAA
TAFHYS
TAF AMD
KHYS 191956Z 1920/2018 17012G18KT P6SM OVC018
     FM192200 17012G18KT P6SM SCT030=



000
FTUS43 KDDC 191700
TAFGCK
TAF
KGCK 191729Z 1918/2018 17012G18KT P6SM SKC=



000
FTUS43 KDDC 191700
TAFHYS
TAF
KHYS 191729Z 1918/2018 17012G18KT P6SM OVC015
     FM192000 17012G18KT P6SM BKN025
     FM192200 17012G18KT P6SM SKC=



000
FTUS43 KDDC 191700
TAFDDC
TAF
KDDC 191729Z 1918/2018 17012G18KT P6SM SKC=



000
FTUS43 KDDC 191700
TAFDDC
TAF
KDDC 191729Z 1918/2018 17012G18KT P6SM SKC=



000
FTUS43 KDDC 191700
TAFGCK
TAF
KGCK 191729Z 1918/2018 17012G18KT P6SM SKC=



000
FTUS43 KDDC 191700
TAFHYS
TAF
KHYS 191729Z 1918/2018 17012G18KT P6SM OVC015
     FM192000 17012G18KT P6SM BKN025
     FM192200 17012G18KT P6SM SKC=



000
FTUS43 KDDC 191500 AAA
TAFDDC
TAF AMD
KDDC 191500Z 1915/2012 18013KT 6SM BR OVC008
     FM191600 18014KT P6SM BKN012
     FM191800 18015G23KT P6SM SKC=



000
FTUS43 KDDC 191500 AAA
TAFDDC
TAF AMD
KDDC 191500Z 1915/2012 18013KT 6SM BR OVC008
     FM191600 18014KT P6SM BKN012
     FM191800 18015G23KT P6SM SKC=



000
FTUS43 KDDC 191400 AAA
TAFHYS
TAF AMD
KHYS 191402Z 1914/2012 17011KT P6SM OVC008
     FM191500 18014KT P6SM BKN012
     FM191700 18015G23KT P6SM SCT025=



000
FTUS43 KDDC 191400 AAA
TAFGCK
TAF AMD
KGCK 191402Z 1914/2012 17012KT 5SM BR BKN008
     FM191500 18014KT P6SM BKN015
     FM191600 20014G20KT P6SM SKC=



000
FTUS43 KDDC 191400 AAA
TAFGCK
TAF AMD
KGCK 191402Z 1914/2012 17012KT 5SM BR BKN008
     FM191500 18014KT P6SM BKN015
     FM191600 20014G20KT P6SM SKC=



000
FTUS43 KDDC 191400 AAA
TAFHYS
TAF AMD
KHYS 191402Z 1914/2012 17011KT P6SM OVC008
     FM191500 18014KT P6SM BKN012
     FM191700 18015G23KT P6SM SCT025=



000
FTUS43 KDDC 191400 AAA
TAFDDC
TAF AMD
KDDC 191401Z 1914/2012 18013KT 6SM BR OVC007
     FM191500 18014KT P6SM BKN012
     FM191700 18015G23KT P6SM SKC=



000
FTUS43 KDDC 191400 AAA
TAFDDC
TAF AMD
KDDC 191401Z 1914/2012 18013KT 6SM BR OVC007
     FM191500 18014KT P6SM BKN012
     FM191700 18015G23KT P6SM SKC=



    US Dept of Commerce
    National Oceanic and Atmospheric Administration
    National Weather Service
    1325 East West Highway
    Silver Spring, MD 20910
    Page Author: NWS Internet Services Team
Disclaimer
Information Quality
Credits
Glossary
Privacy Policy
Freedom of Information Act (FOIA)
About Us
Career Opportunities